createdAt,value
2018-11-29T00:01:45.462Z,101400.59
2018-11-29T00:04:15.290Z,101396.31
2018-11-29T00:06:45.185Z,101404.22
2018-11-29T00:09:15.039Z,101397.69
2018-11-29T00:11:44.881Z,101391.95
2018-11-29T00:14:14.730Z,101397.26
2018-11-29T00:16:44.590Z,101395.08
2018-11-29T00:19:14.707Z,101397.73
2018-11-29T00:21:44.707Z,101398.55
2018-11-29T00:24:14.549Z,101392.17
2018-11-29T00:26:44.425Z,101384.67
2018-11-29T00:29:14.113Z,101388.66
2018-11-29T00:31:43.902Z,101387.16
2018-11-29T00:34:13.997Z,101378.34
2018-11-29T00:36:43.790Z,101383.13
2018-11-29T00:39:13.545Z,101370.94
2018-11-29T00:41:43.455Z,101376.80
2018-11-29T00:44:13.233Z,101365.63
2018-11-29T00:46:43.093Z,101360.66
2018-11-29T00:49:13.450Z,101373.11
2018-11-29T00:51:43.302Z,101372.05
2018-11-29T00:54:13.215Z,101372.34
2018-11-29T00:56:44.192Z,101373.41
2018-11-29T00:59:14.029Z,101385.66
2018-11-29T01:01:48.949Z,101382.27
2018-11-29T01:04:18.780Z,101381.92
2018-11-29T01:06:49.060Z,101387.23
2018-11-29T01:09:19.220Z,101387.53
2018-11-29T01:11:49.002Z,101380.61
2018-11-29T01:14:18.806Z,101391.00
2018-11-29T01:16:48.606Z,101376.22
2018-11-29T01:19:18.360Z,101384.14
2018-11-29T01:21:48.090Z,101377.02
2018-11-29T01:24:18.006Z,101388.05
2018-11-29T01:26:47.782Z,101381.75
2018-11-29T01:29:17.730Z,101387.31
2018-11-29T01:31:47.537Z,101401.58
2018-11-29T01:34:17.466Z,101399.59
2018-11-29T01:36:47.243Z,101400.92
2018-11-29T01:39:17.057Z,101399.48
2018-11-29T01:41:46.939Z,101403.02
2018-11-29T01:44:16.712Z,101395.83
2018-11-29T01:46:46.509Z,101389.16
2018-11-29T01:49:16.955Z,101396.68
2018-11-29T01:51:46.735Z,101392.41
2018-11-29T01:54:16.694Z,101389.75
2018-11-29T01:56:46.405Z,101399.89
2018-11-29T01:59:16.333Z,101405.12
2018-11-29T02:01:46.192Z,101398.23
2018-11-29T02:04:16.038Z,101393.98
2018-11-29T02:06:46.006Z,101390.38
2018-11-29T02:09:15.778Z,101394.58
2018-11-29T02:11:45.627Z,101390.52
2018-11-29T02:14:15.481Z,101381.49
2018-11-29T02:16:45.278Z,101383.70
2018-11-29T02:19:15.110Z,101392.89
2018-11-29T02:21:45.022Z,101390.05
2018-11-29T02:24:15.012Z,101382.81
2018-11-29T02:26:44.777Z,101389.79
2018-11-29T02:29:14.591Z,101384.48
2018-11-29T02:31:44.321Z,101380.78
2018-11-29T02:34:14.151Z,101373.63
2018-11-29T02:36:44.001Z,101367.83
2018-11-29T02:39:13.696Z,101366.44
2018-11-29T02:41:43.700Z,101369.94
2018-11-29T02:44:13.545Z,101365.73
2018-11-29T02:46:43.346Z,101360.39
2018-11-29T02:49:13.038Z,101350.73
2018-11-29T02:51:43.002Z,101356.98
2018-11-29T02:54:12.788Z,101364.63
2018-11-29T02:56:42.616Z,101361.68
2018-11-29T02:59:13.188Z,101357.47
2018-11-29T03:01:43.121Z,101348.41
2018-11-29T03:04:13.684Z,101351.64
2018-11-29T03:06:43.502Z,101343.16
2018-11-29T03:09:13.363Z,101338.33
2018-11-29T03:11:43.093Z,101339.66
2018-11-29T03:14:12.937Z,101340.81
2018-11-29T03:16:42.764Z,101342.37
2018-11-29T03:19:12.521Z,101341.56
2018-11-29T03:21:42.447Z,101339.92
2018-11-29T03:24:12.217Z,101342.87
2018-11-29T03:26:42.071Z,101345.27
2018-11-29T03:29:12.025Z,101340.01
2018-11-29T03:31:41.881Z,101345.03
2018-11-29T03:34:11.842Z,101345.78
2018-11-29T03:36:41.651Z,101336.48
2018-11-29T03:39:11.501Z,101341.88
2018-11-29T03:41:41.286Z,101339.25
2018-11-29T03:44:11.273Z,101341.30
2018-11-29T03:46:41.293Z,101337.61
2018-11-29T03:49:11.134Z,101332.04
2018-11-29T03:51:41.196Z,101335.24
2018-11-29T03:54:11.010Z,101332.61
2018-11-29T03:56:40.801Z,101332.59
2018-11-29T03:59:10.519Z,101337.35
2018-11-29T04:01:40.963Z,101343.21
2018-11-29T04:04:10.918Z,101331.80
2018-11-29T04:06:40.809Z,101333.39
2018-11-29T04:09:11.817Z,101332.84
2018-11-29T04:11:41.561Z,101339.48
2018-11-29T04:14:12.019Z,101335.79
2018-11-29T04:16:41.755Z,101342.43
2018-11-29T04:19:11.674Z,101329.41
2018-11-29T04:21:41.386Z,101339.80
2018-11-29T04:24:11.350Z,101337.45
2018-11-29T04:26:41.207Z,101329.44
2018-11-29T04:29:10.998Z,101323.29
2018-11-29T04:31:40.793Z,101322.50
2018-11-29T04:34:10.596Z,101319.07
2018-11-29T04:36:40.593Z,101321.23
2018-11-29T04:39:10.466Z,101322.02
2018-11-29T04:41:40.255Z,101316.17
2018-11-29T04:44:10.169Z,101312.95
2018-11-29T04:46:51.438Z,101312.95
2018-11-29T04:49:21.193Z,101314.56
2018-11-29T04:51:50.982Z,101314.82
2018-11-29T04:54:21.446Z,101313.25
2018-11-29T04:56:51.200Z,101309.04
2018-11-29T04:59:21.028Z,101305.55
2018-11-29T05:01:50.953Z,101306.61
2018-11-29T05:04:20.755Z,101296.80
2018-11-29T05:06:50.681Z,101310.08
2018-11-29T05:09:21.097Z,101315.39
2018-11-29T05:11:55.055Z,101304.77
2018-11-29T05:14:25.018Z,101294.16
2018-11-29T05:16:54.841Z,101293.33
2018-11-29T05:19:24.829Z,101289.88
2018-11-29T05:21:54.628Z,101285.10
2018-11-29T05:24:24.462Z,101282.75
2018-11-29T05:26:54.313Z,101273.19
2018-11-29T05:29:24.108Z,101277.13
2018-11-29T05:31:53.969Z,101276.89
2018-11-29T05:34:23.747Z,101277.11
2018-11-29T05:36:53.579Z,101273.65
2018-11-29T05:39:24.263Z,101264.10
2018-11-29T05:41:54.887Z,101271.33
2018-11-29T05:44:24.815Z,101269.96
2018-11-29T05:46:54.633Z,101271.01
2018-11-29T05:49:24.451Z,101260.89
2018-11-29T05:51:54.317Z,101265.42
2018-11-29T05:54:24.068Z,101273.65
2018-11-29T05:56:54.008Z,101279.25
2018-11-29T05:59:23.898Z,101272.03
2018-11-29T06:01:54.709Z,101268.34
2018-11-29T06:04:24.594Z,101255.05
2018-11-29T06:06:54.467Z,101258.75
2018-11-29T06:09:24.694Z,101255.27
2018-11-29T06:11:54.646Z,101253.17
2018-11-29T06:14:25.349Z,101255.34
2018-11-29T06:16:55.097Z,101244.13
2018-11-29T06:19:24.889Z,101246.58
2018-11-29T06:21:54.699Z,101246.53
2018-11-29T06:24:24.431Z,101250.80
2018-11-29T06:26:54.273Z,101252.40
2018-11-29T06:29:24.242Z,101247.61
2018-11-29T06:31:54.646Z,101250.03
2018-11-29T06:34:24.346Z,101255.60
2018-11-29T06:36:54.191Z,101247.38
2018-11-29T06:39:24.098Z,101256.12
2018-11-29T06:41:53.994Z,101253.97
2018-11-29T06:44:23.890Z,101247.09
2018-11-29T06:46:53.631Z,101253.22
2018-11-29T06:49:23.525Z,101245.47
2018-11-29T06:51:53.376Z,101247.06
2018-11-29T06:54:24.022Z,101245.47
2018-11-29T06:56:53.910Z,101240.42
2018-11-29T06:59:23.695Z,101243.06
2018-11-29T07:01:53.565Z,101239.64
2018-11-29T07:04:23.534Z,101233.52
2018-11-29T07:06:53.334Z,101232.70
2018-11-29T07:09:23.198Z,101234.31
2018-11-29T07:11:53.099Z,101229.76
2018-11-29T07:14:22.945Z,101227.95
2018-11-29T07:16:52.719Z,101223.42
2018-11-29T07:19:22.865Z,101214.62
2018-11-29T07:21:56.058Z,101226.82
2018-11-29T07:24:26.503Z,101219.96
2018-11-29T07:26:56.489Z,101218.63
2018-11-29T07:29:26.275Z,101218.87
2018-11-29T07:31:56.774Z,101217.30
2018-11-29T07:34:26.596Z,101215.95
2018-11-29T07:36:56.785Z,101215.95
2018-11-29T07:39:26.616Z,101210.64
2018-11-29T07:41:56.385Z,101218.91
2018-11-29T07:44:26.105Z,101207.47
2018-11-29T07:46:55.881Z,101215.95
2018-11-29T07:49:25.646Z,101210.41
2018-11-29T07:51:55.369Z,101216.53
2018-11-29T07:54:25.084Z,101212.02
2018-11-29T07:56:54.925Z,101214.95
2018-11-29T07:59:24.790Z,101212.56
2018-11-29T08:01:54.744Z,101200.88
2018-11-29T08:04:24.686Z,101207.29
2018-11-29T08:06:54.564Z,101203.81
2018-11-29T08:09:24.325Z,101212.87
2018-11-29T08:11:55.406Z,101204.68
2018-11-29T08:14:25.920Z,101202.53
2018-11-29T08:16:56.310Z,101194.28
2018-11-29T08:19:26.142Z,101199.59
2018-11-29T08:21:55.869Z,101183.39
2018-11-29T08:24:25.661Z,101185.80
2018-11-29T08:26:55.378Z,101191.10
2018-11-29T08:29:25.314Z,101188.97
2018-11-29T08:31:55.183Z,101193.48
2018-11-29T08:34:25.015Z,101192.69
2018-11-29T08:36:54.909Z,101185.25
2018-11-29T08:39:24.697Z,101189.25
2018-11-29T08:41:54.535Z,101196.42
2018-11-29T08:44:24.506Z,101207.61
2018-11-29T08:46:54.653Z,101197.48
2018-11-29T08:49:24.518Z,101196.70
2018-11-29T08:51:54.402Z,101201.47
2018-11-29T08:54:24.223Z,101204.96
2018-11-29T08:56:54.062Z,101213.19
2018-11-29T08:59:23.838Z,101212.12
2018-11-29T09:01:53.658Z,101216.64
2018-11-29T09:04:23.354Z,101213.72
2018-11-29T09:06:53.084Z,101206.03
2018-11-29T09:09:22.849Z,101214.02
2018-11-29T09:11:53.264Z,101219.59
2018-11-29T09:14:24.234Z,101219.05
2018-11-29T09:16:54.314Z,101210.56
2018-11-29T09:19:24.062Z,101223.30
2018-11-29T09:21:53.924Z,101220.14
2018-11-29T09:24:24.359Z,101218.30
2018-11-29T09:26:54.329Z,101215.89
2018-11-29T09:29:24.134Z,101219.08
2018-11-29T09:31:54.047Z,101219.62
2018-11-29T09:34:23.759Z,101226.27
2018-11-29T09:36:54.583Z,101210.59
2018-11-29T09:39:24.630Z,101201.55
2018-11-29T09:41:54.610Z,101196.50
2018-11-29T09:44:24.790Z,101194.34
2018-11-29T09:46:56.214Z,101190.36
2018-11-29T09:49:26.000Z,101198.09
2018-11-29T09:51:55.831Z,101190.91
2018-11-29T09:54:25.757Z,101198.35
2018-11-29T09:56:55.642Z,101203.13
2018-11-29T09:59:25.418Z,101199.66
2018-11-29T10:01:55.327Z,101203.13
2018-11-29T10:04:25.356Z,101197.81
2018-11-29T10:06:55.119Z,101207.13
2018-11-29T10:09:25.224Z,101199.13
2018-11-29T10:11:54.950Z,101187.94
2018-11-29T10:14:24.878Z,101185.32
2018-11-29T10:16:54.952Z,101181.86
2018-11-29T10:19:24.719Z,101165.87
2018-11-29T10:21:55.256Z,101160.30
2018-11-29T10:24:25.052Z,101164.05
2018-11-29T10:26:54.968Z,101147.81
2018-11-29T10:29:24.711Z,101151.02
2018-11-29T10:31:54.519Z,101152.86
2018-11-29T10:34:24.392Z,101150.45
2018-11-29T10:36:54.098Z,101141.40
2018-11-29T10:39:23.957Z,101119.88
2018-11-29T10:41:53.747Z,101129.17
2018-11-29T10:44:23.705Z,101114.00
2018-11-29T10:46:53.466Z,101102.84
2018-11-29T10:49:23.215Z,101102.58
2018-11-29T10:51:53.117Z,101107.89
2018-11-29T10:54:22.986Z,101109.77
2018-11-29T10:56:52.737Z,101103.91
2018-11-29T10:59:22.764Z,101082.36
2018-11-29T11:01:57.768Z,101094.61
2018-11-29T11:04:28.383Z,101103.11
2018-11-29T11:06:58.456Z,101108.17
2018-11-29T11:09:28.471Z,101140.59
2018-11-29T11:11:58.191Z,101138.48
2018-11-29T11:14:28.124Z,101135.28
2018-11-29T11:16:57.937Z,101132.90
2018-11-29T11:19:28.429Z,101129.70
2018-11-29T11:21:58.222Z,101115.09
2018-11-29T11:24:29.114Z,101091.42
2018-11-29T11:26:58.974Z,101085.84
2018-11-29T11:29:28.972Z,101092.48
2018-11-29T11:31:58.904Z,101101.78
2018-11-29T11:34:28.818Z,101096.21
2018-11-29T11:36:58.617Z,101099.41
2018-11-29T11:39:28.666Z,101089.56
2018-11-29T11:41:58.399Z,101071.50
2018-11-29T11:44:28.360Z,101043.58
2018-11-29T11:46:58.291Z,100994.69
2018-11-29T11:49:28.287Z,100973.19
2018-11-29T11:51:58.258Z,100986.21
2018-11-29T11:54:28.342Z,100921.64
2018-11-29T11:56:58.140Z,100917.39
2018-11-29T11:59:27.976Z,100880.70
2018-11-29T12:01:57.910Z,100866.41
2018-11-29T12:04:27.763Z,100851.50
2018-11-29T12:06:57.673Z,100824.94
2018-11-29T12:09:27.561Z,100805.83
2018-11-29T12:11:57.773Z,100795.70
2018-11-29T12:14:27.630Z,100836.32
2018-11-29T12:16:58.163Z,100807.34
2018-11-29T12:19:28.095Z,100820.11
2018-11-29T12:21:58.055Z,100823.29
2018-11-29T12:24:27.828Z,100828.83
2018-11-29T12:26:57.814Z,100848.48
2018-11-29T12:29:27.601Z,100858.80
2018-11-29T12:31:57.489Z,100862.53
2018-11-29T12:34:27.383Z,100896.78
2018-11-29T12:36:57.210Z,100955.27
2018-11-29T12:39:27.373Z,100964.86
2018-11-29T12:41:57.217Z,100952.06
2018-11-29T12:44:27.252Z,100957.90
2018-11-29T12:46:57.291Z,100943.02
2018-11-29T12:49:27.247Z,100997.79
2018-11-29T12:51:56.991Z,100984.47
2018-11-29T12:54:27.293Z,100975.98
2018-11-29T12:56:57.999Z,100968.85
2018-11-29T12:59:27.773Z,100960.02
2018-11-29T13:01:57.814Z,100961.12
2018-11-29T13:04:28.285Z,100963.23
2018-11-29T13:06:58.085Z,100944.63
2018-11-29T13:09:27.920Z,100920.73
2018-11-29T13:11:57.774Z,100910.09
2018-11-29T13:14:27.545Z,100911.42
2018-11-29T13:16:57.422Z,100901.87
2018-11-29T13:19:27.196Z,100878.23
2018-11-29T13:21:57.111Z,100846.56
2018-11-29T13:24:27.043Z,100828.51
2018-11-29T13:26:57.010Z,100804.86
2018-11-29T13:29:26.742Z,100821.08
2018-11-29T13:31:56.531Z,100834.59
2018-11-29T13:34:27.198Z,100848.14
2018-11-29T13:36:57.014Z,100855.62
2018-11-29T13:39:26.831Z,100867.33
2018-11-29T13:41:56.636Z,100885.96
2018-11-29T13:44:26.381Z,100863.34
2018-11-29T13:46:56.638Z,100842.60
2018-11-29T13:49:26.443Z,100856.42
2018-11-29T13:51:56.359Z,100817.88
2018-11-29T13:54:26.282Z,100794.75
2018-11-29T13:56:56.170Z,100779.85
2018-11-29T13:59:25.997Z,100763.63
2018-11-29T14:01:55.850Z,100770.27
2018-11-29T14:04:25.609Z,100762.05
2018-11-29T14:06:55.433Z,100746.34
2018-11-29T14:09:25.442Z,100749.25
2018-11-29T14:11:55.479Z,100738.30
2018-11-29T14:14:25.255Z,100729.80
2018-11-29T14:16:55.098Z,100720.64
2018-11-29T14:19:24.824Z,100708.44
2018-11-29T14:21:54.683Z,100703.69
2018-11-29T14:24:24.506Z,100737.41
2018-11-29T14:26:54.957Z,100723.83
2018-11-29T14:29:24.987Z,100723.30
2018-11-29T14:31:55.078Z,100754.17
2018-11-29T14:34:24.925Z,100760.50
2018-11-29T14:36:54.820Z,100761.75
2018-11-29T14:39:24.706Z,100769.20
2018-11-29T14:41:54.692Z,100783.05
2018-11-29T14:44:24.434Z,100789.17
2018-11-29T14:46:54.227Z,100766.46
2018-11-29T14:49:24.124Z,100773.26
2018-11-29T14:51:54.070Z,100775.68
2018-11-29T14:54:23.764Z,100775.68
2018-11-29T14:56:53.649Z,100775.20
2018-11-29T14:59:23.615Z,100766.41
2018-11-29T15:01:53.570Z,100782.09
2018-11-29T15:04:23.342Z,100779.76
2018-11-29T15:06:53.342Z,100768.84
2018-11-29T15:09:23.111Z,100787.54
2018-11-29T15:11:53.040Z,100792.66
2018-11-29T15:14:22.918Z,100782.86
2018-11-29T15:16:52.834Z,100787.13
2018-11-29T15:19:22.701Z,100790.36
2018-11-29T15:21:52.592Z,100780.77
2018-11-29T15:24:22.405Z,100767.23
2018-11-29T15:26:52.287Z,100772.27
2018-11-29T15:29:22.052Z,100759.49
2018-11-29T15:31:52.056Z,100751.52
2018-11-29T15:34:21.876Z,100749.66
2018-11-29T15:36:51.598Z,100751.06
2018-11-29T15:39:21.539Z,100757.44
2018-11-29T15:41:51.393Z,100773.95
2018-11-29T15:44:21.659Z,100777.91
2018-11-29T15:46:51.589Z,100774.50
2018-11-29T15:49:21.420Z,100761.45
2018-11-29T15:51:51.247Z,100755.65
2018-11-29T15:54:21.020Z,100760.47
2018-11-29T15:56:50.827Z,100754.10
2018-11-29T15:59:20.613Z,100751.72
2018-11-29T16:01:50.511Z,100756.20
2018-11-29T16:04:20.524Z,100746.44
2018-11-29T16:06:50.390Z,100747.45
2018-11-29T16:09:20.285Z,100750.42
2018-11-29T16:11:50.250Z,100752.50
2018-11-29T16:14:20.009Z,100744.37
2018-11-29T16:16:49.826Z,100738.74
2018-11-29T16:19:19.616Z,100727.59
2018-11-29T16:21:51.290Z,100735.00
2018-11-29T16:24:20.132Z,100737.94
2018-11-29T16:26:50.041Z,100741.09
2018-11-29T16:29:19.853Z,100734.73
2018-11-29T16:31:49.782Z,100733.64
2018-11-29T16:34:19.633Z,100737.35
2018-11-29T16:36:49.436Z,100738.64
2018-11-29T16:39:19.357Z,100742.88
2018-11-29T16:41:49.332Z,100754.88
2018-11-29T16:44:19.216Z,100756.45
2018-11-29T16:46:49.120Z,100754.31
2018-11-29T16:49:18.829Z,100753.27
2018-11-29T16:51:48.545Z,100755.92
2018-11-29T16:54:18.283Z,100764.42
2018-11-29T16:56:48.055Z,100761.24
2018-11-29T16:59:17.926Z,100766.59
2018-11-29T17:01:47.725Z,100770.77
2018-11-29T17:04:17.522Z,100777.94
2018-11-29T17:06:47.462Z,100780.03
2018-11-29T17:09:17.251Z,100780.63
2018-11-29T17:11:47.188Z,100773.20
2018-11-29T17:14:17.311Z,100762.85
2018-11-29T17:16:47.202Z,100783.34
2018-11-29T17:19:17.051Z,100775.65
2018-11-29T17:21:46.793Z,100782.51
2018-11-29T17:24:16.838Z,100787.02
2018-11-29T17:26:47.657Z,100781.73
2018-11-29T17:29:17.619Z,100777.19
2018-11-29T17:31:47.469Z,100791.04
2018-11-29T17:34:17.354Z,100782.54
2018-11-29T17:36:47.317Z,100792.62
2018-11-29T17:39:17.069Z,100793.45
2018-11-29T17:41:46.988Z,100793.23
2018-11-29T17:44:16.920Z,100800.95
2018-11-29T17:46:46.831Z,100801.70
2018-11-29T17:49:16.914Z,100815.86
2018-11-29T17:51:46.794Z,100805.48
2018-11-29T17:54:16.740Z,100804.94
2018-11-29T17:56:46.782Z,100796.13
2018-11-29T17:59:16.845Z,100811.10
2018-11-29T18:01:46.661Z,100813.98
2018-11-29T18:04:16.648Z,100819.30
2018-11-29T18:06:46.442Z,100822.80
2018-11-29T18:09:16.433Z,100832.34
2018-11-29T18:11:46.262Z,100837.11
2018-11-29T18:14:16.681Z,100832.02
2018-11-29T18:16:46.709Z,100840.52
2018-11-29T18:19:16.675Z,100838.64
2018-11-29T18:21:46.655Z,100838.33
2018-11-29T18:24:16.598Z,100839.91
2018-11-29T18:26:46.514Z,100835.43
2018-11-29T18:29:17.061Z,100841.00
2018-11-29T18:31:46.966Z,100837.81
2018-11-29T18:34:17.080Z,100843.09
2018-11-29T18:36:46.968Z,100844.16
2018-11-29T18:39:16.821Z,100827.92
2018-11-29T18:41:46.924Z,100826.38
2018-11-29T18:44:16.844Z,100823.94
2018-11-29T18:46:47.599Z,100821.25
2018-11-29T18:49:17.466Z,100823.37
2018-11-29T18:51:47.479Z,100822.33
2018-11-29T18:54:17.453Z,100819.70
2018-11-29T18:56:47.339Z,100820.23
2018-11-29T18:59:17.380Z,100822.05
2018-11-29T19:01:47.354Z,100816.73
2018-11-29T19:04:17.200Z,100818.12
2018-11-29T19:06:47.234Z,100816.80
2018-11-29T19:09:17.076Z,100817.04
2018-11-29T19:11:47.511Z,100808.27
2018-11-29T19:14:17.354Z,100810.09
2018-11-29T19:16:47.164Z,100805.11
2018-11-29T19:19:17.048Z,100796.91
2018-11-29T19:21:46.952Z,100796.39
2018-11-29T19:24:16.794Z,100787.08
2018-11-29T19:26:46.793Z,100803.31
2018-11-29T19:29:16.897Z,100801.39
2018-11-29T19:31:46.777Z,100799.27
2018-11-29T19:34:17.204Z,100797.44
2018-11-29T19:36:47.107Z,100795.03
2018-11-29T19:39:17.356Z,100795.83
2018-11-29T19:41:47.231Z,100788.88
2018-11-29T19:44:17.164Z,100790.48
2018-11-29T19:46:47.090Z,100788.33
2018-11-29T19:49:16.947Z,100796.02
2018-11-29T19:51:46.816Z,100799.20
2018-11-29T19:54:16.903Z,100814.91
2018-11-29T19:56:46.802Z,100817.78
2018-11-29T19:59:16.773Z,100817.78
2018-11-29T20:01:46.723Z,100815.66
2018-11-29T20:04:16.647Z,100816.23
2018-11-29T20:06:46.727Z,100816.23
2018-11-29T20:09:16.539Z,100815.96
2018-11-29T20:11:46.544Z,100806.66
2018-11-29T20:14:16.353Z,100811.97
2018-11-29T20:16:46.438Z,100816.80
2018-11-29T20:19:16.766Z,100815.71
2018-11-29T20:21:46.738Z,100808.54
2018-11-29T20:24:16.712Z,100806.16
2018-11-29T20:26:46.519Z,100813.27
2018-11-29T20:29:16.539Z,100813.58
2018-11-29T20:31:46.497Z,100807.61
2018-11-29T20:34:16.374Z,100810.30
2018-11-29T20:36:46.356Z,100801.30
2018-11-29T20:39:16.187Z,100800.99
2018-11-29T20:41:45.984Z,100789.87
2018-11-29T20:44:15.898Z,100793.36
2018-11-29T20:46:46.350Z,100795.98
2018-11-29T20:49:16.418Z,100807.92
2018-11-29T20:51:46.268Z,100791.20
2018-11-29T20:54:16.091Z,100804.21
2018-11-29T20:56:46.099Z,100807.67
2018-11-29T20:59:15.962Z,100796.83
2018-11-29T21:01:45.991Z,100798.70
2018-11-29T21:04:15.878Z,100795.22
2018-11-29T21:06:45.850Z,100787.48
2018-11-29T21:09:15.871Z,100782.45
2018-11-29T21:11:47.874Z,100790.17
2018-11-29T21:14:15.827Z,100797.10
2018-11-29T21:16:45.759Z,100819.12
2018-11-29T21:19:15.779Z,100807.43
2018-11-29T21:21:45.840Z,100812.50
2018-11-29T21:24:15.957Z,100812.25
2018-11-29T21:26:46.025Z,100809.53
2018-11-29T21:29:15.906Z,100809.78
2018-11-29T21:31:46.099Z,100812.75
2018-11-29T21:34:15.885Z,100810.64
2018-11-29T21:36:45.958Z,100811.66
2018-11-29T21:39:15.819Z,100814.84
2018-11-29T21:41:45.871Z,100815.93
2018-11-29T21:44:15.754Z,100818.59
2018-11-29T21:46:45.667Z,100822.61
2018-11-29T21:49:15.708Z,100822.02
2018-11-29T21:51:45.553Z,100818.84
2018-11-29T21:54:15.415Z,100808.48
2018-11-29T21:56:45.319Z,100809.31
2018-11-29T21:59:15.262Z,100815.19
2018-11-29T22:01:45.189Z,100811.69
2018-11-29T22:04:15.087Z,100814.08
2018-11-29T22:06:45.205Z,100816.42
2018-11-29T22:09:15.157Z,100810.83
2018-11-29T22:11:45.013Z,100812.68
2018-11-29T22:14:14.831Z,100815.38
2018-11-29T22:16:44.683Z,100808.70
2018-11-29T22:19:14.793Z,100808.41
2018-11-29T22:21:44.599Z,100820.91
2018-11-29T22:24:14.591Z,100815.59
2018-11-29T22:26:44.407Z,100806.84
2018-11-29T22:29:14.409Z,100808.70
2018-11-29T22:31:44.205Z,100805.27
2018-11-29T22:34:14.641Z,100804.73
2018-11-29T22:36:44.577Z,100808.73
2018-11-29T22:39:14.476Z,100808.97
2018-11-29T22:41:44.449Z,100810.83
2018-11-29T22:44:14.370Z,100807.92
2018-11-29T22:46:44.798Z,100803.37
2018-11-29T22:49:15.277Z,100804.17
2018-11-29T22:51:45.713Z,100807.64
2018-11-29T22:54:16.117Z,100803.66
2018-11-29T22:56:45.906Z,100803.37
2018-11-29T22:59:15.875Z,100803.37
2018-11-29T23:01:45.741Z,100804.17
2018-11-29T23:04:15.589Z,100806.56
2018-11-29T23:06:45.477Z,100803.37
2018-11-29T23:09:15.310Z,100798.30
2018-11-29T23:11:45.103Z,100798.33
2018-11-29T23:14:15.024Z,100795.91
2018-11-29T23:16:44.929Z,100797.94
2018-11-29T23:19:14.712Z,100793.75
2018-11-29T23:21:44.660Z,100786.33
2018-11-29T23:24:14.927Z,100791.41
2018-11-29T23:26:44.740Z,100794.88
2018-11-29T23:29:14.666Z,100801.52
2018-11-29T23:31:44.558Z,100791.68
2018-11-29T23:34:14.381Z,100791.92
2018-11-29T23:36:44.451Z,100790.08
2018-11-29T23:39:14.503Z,100786.61
2018-11-29T23:41:44.409Z,100789.80
2018-11-29T23:44:14.154Z,100801.16
2018-11-29T23:46:44.215Z,100793.91
2018-11-29T23:49:14.658Z,100789.44
2018-11-29T23:51:44.495Z,100786.29
2018-11-29T23:54:14.529Z,100785.77
2018-11-29T23:56:45.303Z,100785.56
2018-11-29T23:59:15.313Z,100787.58
